KVNY/VNY METAR and TAF weather

Enter ICAO airport designator
Station Type Date Time Source
KVNY METAR 2021/09/24 06:51 UTC NOAA

KVNY 240651Z AUTO 13004KT 10SM CLR 20/13 A2992 RMK AO2 SLP122 T02000133


Station Type Date Time Source
KVNY Decoded METAR 2021/09/24 06:51 UTC NOAA

VAN NUYS AIRPORT, CA, United States (KVNY) 34-13N 118-29W 245M
Sep 24, 2021 - 02:51 AM EDT / 2021.09.24 0651 UTC
Wind: from the SE (130 degrees) at 5 MPH (4 KT):0
Visibility: 10 mile(s):0
Sky conditions: clear
Temperature: 68.0 F (20.0 C)
Dew Point: 55.9 F (13.3 C)
Relative Humidity: 65%
Pressure (altimeter): 29.92 in. Hg (1013 hPa)
ob: KVNY 240651Z AUTO 13004KT 10SM CLR 20/13 A2992 RMK AO2 SLP122 T02000133
cycle: 7

Station Type Date Time Source
KVNY TAF 2021/09/24 06:51 UTC NOAA

TAF KVNY 240549Z 2406/2506 10006KT P6SM SKC
FM240800 VRB03KT P6SM SKC
FM242100 14008KT P6SM SKC
FM250300 VRB03KT P6SM SKC

Example: see airport list